sensor_id;sensor_type;location;lat;lon;timestamp;pressure;altitude;pressure_sealevel;temperature;humidity
22440;BME280;11387;51.612;7.210;2024-02-26T00:01:12;161413.53;;;4.51;100.00
22440;BME280;11387;51.612;7.210;2024-02-26T00:03:36;161394.88;;;4.44;100.00
22440;BME280;11387;51.612;7.210;2024-02-26T00:05:59;161401.56;;;4.47;100.00
22440;BME280;11387;51.612;7.210;2024-02-26T00:08:23;161393.56;;;4.44;100.00
22440;BME280;11387;51.612;7.210;2024-02-26T00:10:47;161406.88;;;4.49;100.00
22440;BME280;11387;51.612;7.210;2024-02-26T00:13:11;161388.22;;;4.42;100.00
22440;BME280;11387;51.612;7.210;2024-02-26T00:15:36;161385.56;;;4.40;100.00
22440;BME280;11387;51.612;7.210;2024-02-26T00:18:00;161396.22;;;4.45;100.00
22440;BME280;11387;51.612;7.210;2024-02-26T00:20:24;161374.91;;;4.36;100.00
22440;BME280;11387;51.612;7.210;2024-02-26T00:22:48;161408.22;;;4.49;100.00
22440;BME280;11387;51.612;7.210;2024-02-26T00:25:11;161420.19;;;4.54;100.00
22440;BME280;11387;51.612;7.210;2024-02-26T00:27:36;161422.88;;;4.55;100.00
22440;BME280;11387;51.612;7.210;2024-02-26T00:30:01;161404.22;;;4.48;100.00
22440;BME280;11387;51.612;7.210;2024-02-26T00:32:28;161401.56;;;4.47;100.00
22440;BME280;11387;51.612;7.210;2024-02-26T00:34:56;161412.22;;;4.51;100.00
22440;BME280;11387;51.612;7.210;2024-02-26T00:37:20;161424.19;;;4.55;100.00
22440;BME280;11387;51.612;7.210;2024-02-26T00:39:46;161409.53;;;4.50;100.00
22440;BME280;11387;51.612;7.210;2024-02-26T00:42:10;161418.88;;;4.53;100.00
22440;BME280;11387;51.612;7.210;2024-02-26T00:44:33;161425.53;;;4.56;100.00
22440;BME280;11387;51.612;7.210;2024-02-26T00:46:57;161401.56;;;4.47;100.00
22440;BME280;11387;51.612;7.210;2024-02-26T00:49:24;161401.56;;;4.47;100.00
22440;BME280;11387;51.612;7.210;2024-02-26T00:51:52;161393.56;;;4.44;100.00
22440;BME280;11387;51.612;7.210;2024-02-26T00:54:18;161389.56;;;4.42;100.00
22440;BME280;11387;51.612;7.210;2024-02-26T00:56:44;161405.56;;;4.48;100.00
22440;BME280;11387;51.612;7.210;2024-02-26T00:59:08;161412.22;;;4.51;100.00
22440;BME280;11387;51.612;7.210;2024-02-26T01:01:32;161417.53;;;4.53;100.00
22440;BME280;11387;51.612;7.210;2024-02-26T01:03:55;161421.53;;;4.54;100.00
22440;BME280;11387;51.612;7.210;2024-02-26T01:06:20;161413.53;;;4.51;100.00
22440;BME280;11387;51.612;7.210;2024-02-26T01:08:46;161408.22;;;4.49;100.00
22440;BME280;11387;51.612;7.210;2024-02-26T01:11:14;161430.84;;;4.58;100.00
22440;BME280;11387;51.612;7.210;2024-02-26T01:13:38;161433.47;;;4.59;100.00
22440;BME280;11387;51.612;7.210;2024-02-26T01:16:07;161433.47;;;4.59;100.00
22440;BME280;11387;51.612;7.210;2024-02-26T01:18:34;161436.13;;;4.60;100.00
22440;BME280;11387;51.612;7.210;2024-02-26T01:21:03;161438.81;;;4.61;100.00
22440;BME280;11387;51.612;7.210;2024-02-26T01:23:41;161441.47;;;4.62;100.00
22440;BME280;11387;51.612;7.210;2024-02-26T01:26:08;161456.13;;;4.67;100.00
22440;BME280;11387;51.612;7.210;2024-02-26T01:28:37;161441.47;;;4.62;100.00
22440;BME280;11387;51.612;7.210;2024-02-26T01:31:06;161465.44;;;4.71;100.00
22440;BME280;11387;51.612;7.210;2024-02-26T01:33:32;161481.44;;;4.77;100.00
22440;BME280;11387;51.612;7.210;2024-02-26T01:35:56;161465.44;;;4.71;100.00
22440;BME280;11387;51.612;7.210;2024-02-26T01:38:20;161492.09;;;4.81;100.00
22440;BME280;11387;51.612;7.210;2024-02-26T01:40:45;161462.78;;;4.70;100.00
22440;BME280;11387;51.612;7.210;2024-02-26T01:43:10;161465.44;;;4.71;100.00
22440;BME280;11387;51.612;7.210;2024-02-26T01:45:34;161460.13;;;4.69;100.00
22440;BME280;11387;51.612;7.210;2024-02-26T01:47:57;161460.13;;;4.69;100.00
22440;BME280;11387;51.612;7.210;2024-02-26T01:50:22;161464.13;;;4.70;100.00
22440;BME280;11387;51.612;7.210;2024-02-26T01:52:50;161470.78;;;4.73;100.00
22440;BME280;11387;51.612;7.210;2024-02-26T01:55:14;161462.78;;;4.70;100.00
22440;BME280;11387;51.612;7.210;2024-02-26T01:57:45;161476.09;;;4.75;100.00
22440;BME280;11387;51.612;7.210;2024-02-26T02:00:09;161489.44;;;4.80;100.00
22440;BME280;11387;51.612;7.210;2024-02-26T02:02:34;161513.34;;;4.89;100.00
22440;BME280;11387;51.612;7.210;2024-02-26T02:04:58;161492.09;;;4.81;100.00
22440;BME280;11387;51.612;7.210;2024-02-26T02:07:22;161489.44;;;4.80;100.00
22440;BME280;11387;51.612;7.210;2024-02-26T02:09:47;161473.44;;;4.74;100.00
22440;BME280;11387;51.612;7.210;2024-02-26T02:12:10;161477.44;;;4.76;100.00
22440;BME280;11387;51.612;7.210;2024-02-26T02:14:39;161473.44;;;4.74;100.00
22440;BME280;11387;51.612;7.210;2024-02-26T02:17:06;161489.44;;;4.80;100.00
22440;BME280;11387;51.612;7.210;2024-02-26T02:19:39;161486.75;;;4.79;100.00
22440;BME280;11387;51.612;7.210;2024-02-26T02:22:04;161478.78;;;4.76;100.00
22440;BME280;11387;51.612;7.210;2024-02-26T02:24:28;161470.78;;;4.73;100.00
22440;BME280;11387;51.612;7.210;2024-02-26T02:26:51;161476.09;;;4.75;100.00
22440;BME280;11387;51.612;7.210;2024-02-26T02:29:15;161492.09;;;4.81;100.00
22440;BME280;11387;51.612;7.210;2024-02-26T02:31:42;161488.09;;;4.80;100.00
22440;BME280;11387;51.612;7.210;2024-02-26T02:34:09;161482.75;;;4.78;100.00
22440;BME280;11387;51.612;7.210;2024-02-26T02:36:33;161478.78;;;4.76;100.00
22440;BME280;11387;51.612;7.210;2024-02-26T02:38:58;161461.44;;;4.69;100.00
22440;BME280;11387;51.612;7.210;2024-02-26T02:41:21;161465.44;;;4.71;100.00
22440;BME280;11387;51.612;7.210;2024-02-26T02:44:05;161465.44;;;4.71;100.00
22440;BME280;11387;51.612;7.210;2024-02-26T02:46:28;161448.13;;;4.64;100.00
22440;BME280;11387;51.612;7.210;2024-02-26T02:48:53;161458.78;;;4.68;100.00
22440;BME280;11387;51.612;7.210;2024-02-26T02:51:17;161449.47;;;4.65;100.00
22440;BME280;11387;51.612;7.210;2024-02-26T02:53:58;161441.47;;;4.62;100.00
22440;BME280;11387;51.612;7.210;2024-02-26T02:56:22;161430.84;;;4.58;100.00
22440;BME280;11387;51.612;7.210;2024-02-26T02:58:46;161441.47;;;4.62;100.00
22440;BME280;11387;51.612;7.210;2024-02-26T03:01:09;161417.53;;;4.53;100.00
22440;BME280;11387;51.612;7.210;2024-02-26T03:03:33;161420.19;;;4.54;100.00
22440;BME280;11387;51.612;7.210;2024-02-26T03:05:56;161410.88;;;4.50;100.00
22440;BME280;11387;51.612;7.210;2024-02-26T03:08:20;161414.88;;;4.52;100.00
22440;BME280;11387;51.612;7.210;2024-02-26T03:10:45;161425.53;;;4.56;100.00
22440;BME280;11387;51.612;7.210;2024-02-26T03:13:08;161412.22;;;4.51;100.00
22440;BME280;11387;51.612;7.210;2024-02-26T03:15:32;161428.19;;;4.57;100.00
22440;BME280;11387;51.612;7.210;2024-02-26T03:17:55;161412.22;;;4.51;100.00
22440;BME280;11387;51.612;7.210;2024-02-26T03:20:33;161405.56;;;4.48;100.00
22440;BME280;11387;51.612;7.210;2024-02-26T03:22:56;161398.88;;;4.46;100.00
22440;BME280;11387;51.612;7.210;2024-02-26T03:25:20;161421.53;;;4.54;100.00
22440;BME280;11387;51.612;7.210;2024-02-26T03:27:45;161405.56;;;4.48;100.00
22440;BME280;11387;51.612;7.210;2024-02-26T03:30:10;161406.88;;;4.49;100.00
22440;BME280;11387;51.612;7.210;2024-02-26T03:32:33;161397.56;;;4.45;100.00
22440;BME280;11387;51.612;7.210;2024-02-26T03:34:57;161413.53;;;4.51;100.00
22440;BME280;11387;51.612;7.210;2024-02-26T03:37:20;161386.91;;;4.41;100.00
22440;BME280;11387;51.612;7.210;2024-02-26T03:39:44;161374.91;;;4.36;100.00
22440;BME280;11387;51.612;7.210;2024-02-26T03:42:07;161385.56;;;4.40;100.00
22440;BME280;11387;51.612;7.210;2024-02-26T03:44:32;161365.59;;;4.33;100.00
22440;BME280;11387;51.612;7.210;2024-02-26T03:46:56;161382.91;;;4.39;100.00
22440;BME280;11387;51.612;7.210;2024-02-26T03:49:20;161386.91;;;4.41;100.00
22440;BME280;11387;51.612;7.210;2024-02-26T03:51:44;161396.22;;;4.45;100.00
22440;BME280;11387;51.612;7.210;2024-02-26T03:54:07;161380.25;;;4.38;100.00
22440;BME280;11387;51.612;7.210;2024-02-26T03:56:31;161394.88;;;4.44;100.00
22440;BME280;11387;51.612;7.210;2024-02-26T03:58:54;161392.22;;;4.43;100.00
22440;BME280;11387;51.612;7.210;2024-02-26T04:01:19;161374.91;;;4.36;100.00
22440;BME280;11387;51.612;7.210;2024-02-26T04:03:43;161366.91;;;4.33;100.00
22440;BME280;11387;51.612;7.210;2024-02-26T04:06:08;161352.31;;;4.28;100.00
22440;BME280;11387;51.612;7.210;2024-02-26T04:08:32;161364.25;;;4.32;100.00
22440;BME280;11387;51.612;7.210;2024-02-26T04:10:55;161340.34;;;4.23;100.00
22440;BME280;11387;51.612;7.210;2024-02-26T04:13:19;161376.25;;;4.37;100.00
22440;BME280;11387;51.612;7.210;2024-02-26T04:15:43;161354.94;;;4.29;100.00
22440;BME280;11387;51.612;7.210;2024-02-26T04:18:08;161347.00;;;4.26;100.00
22440;BME280;11387;51.612;7.210;2024-02-26T04:20:31;161305.72;;;4.10;100.00
22440;BME280;11387;51.612;7.210;2024-02-26T04:22:55;161281.75;;;4.01;100.00
22440;BME280;11387;51.612;7.210;2024-02-26T04:25:24;161300.38;;;4.08;100.00
22440;BME280;11387;51.612;7.210;2024-02-26T04:27:48;161308.38;;;4.11;100.00
22440;BME280;11387;51.612;7.210;2024-02-26T04:30:11;161265.81;;;3.95;100.00
22440;BME280;11387;51.612;7.210;2024-02-26T04:32:35;161244.50;;;3.87;100.00
22440;BME280;11387;51.612;7.210;2024-02-26T04:35:00;161276.41;;;3.99;100.00
22440;BME280;11387;51.612;7.210;2024-02-26T04:37:24;161264.47;;;3.94;100.00
22440;BME280;11387;51.612;7.210;2024-02-26T04:39:53;161249.84;;;3.89;100.00
22440;BME280;11387;51.612;7.210;2024-02-26T04:42:16;161240.53;;;3.85;100.00
22440;BME280;11387;51.612;7.210;2024-02-26T04:44:41;161259.16;;;3.92;100.00
22440;BME280;11387;51.612;7.210;2024-02-26T04:47:04;161308.38;;;4.11;100.00
22440;BME280;11387;51.612;7.210;2024-02-26T04:49:30;161285.75;;;4.02;100.00
22440;BME280;11387;51.612;7.210;2024-02-26T04:51:55;161251.16;;;3.89;100.00
22440;BME280;11387;51.612;7.210;2024-02-26T04:54:18;161252.50;;;3.90;100.00
22440;BME280;11387;51.612;7.210;2024-02-26T04:56:42;161243.19;;;3.86;100.00
22440;BME280;11387;51.612;7.210;2024-02-26T04:59:06;161257.81;;;3.92;100.00
22440;BME280;11387;51.612;7.210;2024-02-26T05:01:30;161248.50;;;3.88;100.00
22440;BME280;11387;51.612;7.210;2024-02-26T05:03:53;161237.84;;;3.84;100.00
22440;BME280;11387;51.612;7.210;2024-02-26T05:06:17;161244.50;;;3.87;100.00
22440;BME280;11387;51.612;7.210;2024-02-26T05:08:42;161232.53;;;3.82;100.00
22440;BME280;11387;51.612;7.210;2024-02-26T05:11:06;161239.19;;;3.85;100.00
22440;BME280;11387;51.612;7.210;2024-02-26T05:13:29;161247.19;;;3.88;100.00
22440;BME280;11387;51.612;7.210;2024-02-26T05:15:53;161260.50;;;3.93;100.00
22440;BME280;11387;51.612;7.210;2024-02-26T05:18:17;161240.53;;;3.85;100.00
22440;BME280;11387;51.612;7.210;2024-02-26T05:20:41;161252.50;;;3.90;100.00
22440;BME280;11387;51.612;7.210;2024-02-26T05:23:04;161244.50;;;3.87;100.00
22440;BME280;11387;51.612;7.210;2024-02-26T05:25:30;161249.84;;;3.89;100.00
22440;BME280;11387;51.612;7.210;2024-02-26T05:27:53;161239.19;;;3.85;100.00
22440;BME280;11387;51.612;7.210;2024-02-26T05:30:17;161241.84;;;3.86;100.00
22440;BME280;11387;51.612;7.210;2024-02-26T05:32:40;161231.19;;;3.82;100.00
22440;BME280;11387;51.612;7.210;2024-02-26T05:35:05;161199.25;;;3.69;100.00
22440;BME280;11387;51.612;7.210;2024-02-26T05:37:29;161170.00;;;3.58;100.00
22440;BME280;11387;51.612;7.210;2024-02-26T05:39:52;161175.34;;;3.60;100.00
22440;BME280;11387;51.612;7.210;2024-02-26T05:42:17;161166.03;;;3.57;100.00
22440;BME280;11387;51.612;7.210;2024-02-26T05:44:41;161152.72;;;3.52;100.00
22440;BME280;11387;51.612;7.210;2024-02-26T05:47:04;161152.72;;;3.52;100.00
22440;BME280;11387;51.612;7.210;2024-02-26T05:49:28;161135.41;;;3.45;100.00
22440;BME280;11387;51.612;7.210;2024-02-26T05:51:52;161138.06;;;3.46;100.00
22440;BME280;11387;51.612;7.210;2024-02-26T05:54:15;161131.41;;;3.44;100.00
22440;BME280;11387;51.612;7.210;2024-02-26T05:56:39;161143.38;;;3.48;100.00
22440;BME280;11387;51.612;7.210;2024-02-26T05:59:04;161127.41;;;3.42;100.00
22440;BME280;11387;51.612;7.210;2024-02-26T06:01:28;161116.78;;;3.38;100.00
22440;BME280;11387;51.612;7.210;2024-02-26T06:03:52;161120.75;;;3.39;100.00
22440;BME280;11387;51.612;7.210;2024-02-26T06:06:15;161114.09;;;3.37;100.00
22440;BME280;11387;51.612;7.210;2024-02-26T06:08:39;161110.16;;;3.35;100.00
22440;BME280;11387;51.612;7.210;2024-02-26T06:11:05;161106.19;;;3.34;100.00
22440;BME280;11387;51.612;7.210;2024-02-26T06:13:28;161122.09;;;3.40;100.00
22440;BME280;11387;51.612;7.210;2024-02-26T06:15:54;161090.22;;;3.28;100.00
22440;BME280;11387;51.612;7.210;2024-02-26T06:18:18;161115.44;;;3.37;100.00
22440;BME280;11387;51.612;7.210;2024-02-26T06:20:41;161116.78;;;3.38;100.00
22440;BME280;11387;51.612;7.210;2024-02-26T06:23:05;161111.50;;;3.36;100.00
22440;BME280;11387;51.612;7.210;2024-02-26T06:25:29;161116.78;;;3.38;100.00
22440;BME280;11387;51.612;7.210;2024-02-26T06:27:52;161119.44;;;3.39;100.00
22440;BME280;11387;51.612;7.210;2024-02-26T06:30:17;161120.75;;;3.39;100.00
22440;BME280;11387;51.612;7.210;2024-02-26T06:32:42;161116.78;;;3.38;100.00
22440;BME280;11387;51.612;7.210;2024-02-26T06:35:06;161119.44;;;3.39;100.00
22440;BME280;11387;51.612;7.210;2024-02-26T06:37:30;161130.09;;;3.43;100.00
22440;BME280;11387;51.612;7.210;2024-02-26T06:39:54;161143.38;;;3.48;100.00
22440;BME280;11387;51.612;7.210;2024-02-26T06:42:18;161114.09;;;3.37;100.00
22440;BME280;11387;51.612;7.210;2024-02-26T06:44:41;161124.75;;;3.41;100.00
22440;BME280;11387;51.612;7.210;2024-02-26T06:47:05;161144.72;;;3.49;100.00
22440;BME280;11387;51.612;7.210;2024-02-26T06:49:32;161131.41;;;3.44;100.00
22440;BME280;11387;51.612;7.210;2024-02-26T06:52:14;161132.75;;;3.44;100.00
22440;BME280;11387;51.612;7.210;2024-02-26T06:54:55;161158.03;;;3.54;100.00
22440;BME280;11387;51.612;7.210;2024-02-26T06:57:19;161151.38;;;3.51;100.00
22440;BME280;11387;51.612;7.210;2024-02-26T06:59:42;161152.72;;;3.52;100.00
22440;BME280;11387;51.612;7.210;2024-02-26T07:02:08;161156.69;;;3.53;100.00
22440;BME280;11387;51.612;7.210;2024-02-26T07:04:33;161151.38;;;3.51;100.00
22440;BME280;11387;51.612;7.210;2024-02-26T07:06:59;161164.69;;;3.56;100.00
22440;BME280;11387;51.612;7.210;2024-02-26T07:09:22;161159.38;;;3.54;100.00
22440;BME280;11387;51.612;7.210;2024-02-26T07:11:46;161186.00;;;3.64;100.00
22440;BME280;11387;51.612;7.210;2024-02-26T07:14:09;161201.91;;;3.70;100.00
22440;BME280;11387;51.612;7.210;2024-02-26T07:16:33;161171.34;;;3.59;100.00
22440;BME280;11387;51.612;7.210;2024-02-26T07:18:56;161193.91;;;3.67;100.00
22440;BME280;11387;51.612;7.210;2024-02-26T07:21:21;161176.66;;;3.61;100.00
22440;BME280;11387;51.612;7.210;2024-02-26T07:23:45;161180.66;;;3.62;100.00
22440;BME280;11387;51.612;7.210;2024-02-26T07:26:08;161188.66;;;3.65;100.00
22440;BME280;11387;51.612;7.210;2024-02-26T07:28:34;161215.22;;;3.76;100.00
22440;BME280;11387;51.612;7.210;2024-02-26T07:30:58;161223.22;;;3.79;100.00
22440;BME280;11387;51.612;7.210;2024-02-26T07:33:21;161217.88;;;3.77;100.00
22440;BME280;11387;51.612;7.210;2024-02-26T07:35:45;161241.84;;;3.86;100.00
22440;BME280;11387;51.612;7.210;2024-02-26T07:38:10;161255.16;;;3.91;100.00
22440;BME280;11387;51.612;7.210;2024-02-26T07:40:49;161284.41;;;4.02;100.00
22440;BME280;11387;51.612;7.210;2024-02-26T07:43:23;161297.72;;;4.07;100.00
22440;BME280;11387;51.612;7.210;2024-02-26T07:45:47;161288.41;;;4.03;100.00
22440;BME280;11387;51.612;7.210;2024-02-26T07:48:11;161267.16;;;3.95;100.00
22440;BME280;11387;51.612;7.210;2024-02-26T07:50:36;161287.06;;;4.03;100.00
22440;BME280;11387;51.612;7.210;2024-02-26T07:53:00;161261.81;;;3.93;100.00
22440;BME280;11387;51.612;7.210;2024-02-26T07:55:25;161292.41;;;4.05;100.00
22440;BME280;11387;51.612;7.210;2024-02-26T07:57:49;161304.38;;;4.10;100.00
22440;BME280;11387;51.612;7.210;2024-02-26T08:00:14;161319.03;;;4.15;100.00
22440;BME280;11387;51.612;7.210;2024-02-26T08:02:39;161315.03;;;4.14;100.00
22440;BME280;11387;51.612;7.210;2024-02-26T08:05:03;161343.00;;;4.24;100.00
22440;BME280;11387;51.612;7.210;2024-02-26T08:07:27;161339.00;;;4.23;100.00
22440;BME280;11387;51.612;7.210;2024-02-26T08:09:50;161301.72;;;4.09;100.00
22440;BME280;11387;51.612;7.210;2024-02-26T08:12:15;161321.69;;;4.16;100.00
22440;BME280;11387;51.612;7.210;2024-02-26T08:14:40;161333.69;;;4.21;100.00
22440;BME280;11387;51.612;7.210;2024-02-26T08:17:06;161337.69;;;4.22;100.00
22440;BME280;11387;51.612;7.210;2024-02-26T08:19:30;161382.91;;;4.39;100.00
22440;BME280;11387;51.612;7.210;2024-02-26T08:21:54;161396.22;;;4.45;100.00
22440;BME280;11387;51.612;7.210;2024-02-26T08:24:17;161356.28;;;4.29;100.00
22440;BME280;11387;51.612;7.210;2024-02-26T08:26:41;161361.59;;;4.31;100.00
22440;BME280;11387;51.612;7.210;2024-02-26T08:29:06;161368.25;;;4.34;100.00
22440;BME280;11387;51.612;7.210;2024-02-26T08:31:30;161348.31;;;4.26;100.00
22440;BME280;11387;51.612;7.210;2024-02-26T08:33:53;161368.25;;;4.34;100.00
22440;BME280;11387;51.612;7.210;2024-02-26T08:36:17;161381.56;;;4.39;100.00
22440;BME280;11387;51.612;7.210;2024-02-26T08:38:41;161382.91;;;4.39;100.00
22440;BME280;11387;51.612;7.210;2024-02-26T08:41:05;161404.22;;;4.48;100.00
22440;BME280;11387;51.612;7.210;2024-02-26T08:43:28;161388.22;;;4.42;100.00
22440;BME280;11387;51.612;7.210;2024-02-26T08:45:53;161369.59;;;4.34;100.00
22440;BME280;11387;51.612;7.210;2024-02-26T08:48:18;161382.91;;;4.39;100.00
22440;BME280;11387;51.612;7.210;2024-02-26T08:50:41;161386.91;;;4.41;100.00
22440;BME280;11387;51.612;7.210;2024-02-26T08:53:05;161421.53;;;4.54;100.00
22440;BME280;11387;51.612;7.210;2024-02-26T08:55:29;161481.44;;;4.77;100.00
22440;BME280;11387;51.612;7.210;2024-02-26T08:57:53;161506.75;;;4.87;100.00
22440;BME280;11387;51.612;7.210;2024-02-26T09:00:17;161508.09;;;4.87;100.00
22440;BME280;11387;51.612;7.210;2024-02-26T09:02:44;161457.44;;;4.68;100.00
22440;BME280;11387;51.612;7.210;2024-02-26T09:05:08;161422.88;;;4.55;100.00
22440;BME280;11387;51.612;7.210;2024-02-26T09:07:32;161420.19;;;4.54;100.00
22440;BME280;11387;51.612;7.210;2024-02-26T09:09:55;161432.19;;;4.58;100.00
22440;BME280;11387;51.612;7.210;2024-02-26T09:12:19;161482.75;;;4.78;100.00
22440;BME280;11387;51.612;7.210;2024-02-26T09:14:43;161502.75;;;4.85;100.00
22440;BME280;11387;51.612;7.210;2024-02-26T09:17:07;161510.75;;;4.88;100.00
22440;BME280;11387;51.612;7.210;2024-02-26T09:19:32;161534.69;;;4.97;100.00
22440;BME280;11387;51.612;7.210;2024-02-26T09:21:56;161545.34;;;5.01;100.00
22440;BME280;11387;51.612;7.210;2024-02-26T09:24:20;161564.00;;;5.08;100.00
22440;BME280;11387;51.612;7.210;2024-02-26T09:26:47;161584.00;;;5.16;100.00
22440;BME280;11387;51.612;7.210;2024-02-26T09:29:11;161574.66;;;5.13;100.00
22440;BME280;11387;51.612;7.210;2024-02-26T09:31:34;161533.34;;;4.97;100.00
22440;BME280;11387;51.612;7.210;2024-02-26T09:33:58;161546.66;;;5.02;100.00
22440;BME280;11387;51.612;7.210;2024-02-26T09:36:27;161524.03;;;4.93;100.00
22440;BME280;11387;51.612;7.210;2024-02-26T09:38:54;161529.34;;;4.95;100.00
22440;BME280;11387;51.612;7.210;2024-02-26T09:41:23;161581.31;;;5.15;100.00
22440;BME280;11387;51.612;7.210;2024-02-26T09:43:48;161630.59;;;5.34;100.00
22440;BME280;11387;51.612;7.210;2024-02-26T09:46:15;161642.56;;;5.38;100.00
22440;BME280;11387;51.612;7.210;2024-02-26T09:48:43;161642.56;;;5.38;100.00
22440;BME280;11387;51.612;7.210;2024-02-26T09:51:10;161631.91;;;5.34;100.00
22440;BME280;11387;51.612;7.210;2024-02-26T09:53:36;161646.56;;;5.40;100.00
22440;BME280;11387;51.612;7.210;2024-02-26T09:56:02;161673.22;;;5.50;100.00
22440;BME280;11387;51.612;7.210;2024-02-26T09:58:28;161710.50;;;5.64;100.00
22440;BME280;11387;51.612;7.210;2024-02-26T10:00:55;161763.78;;;5.85;100.00
22440;BME280;11387;51.612;7.210;2024-02-26T10:03:21;161758.47;;;5.83;100.00
22440;BME280;11387;51.612;7.210;2024-02-26T10:05:45;161767.78;;;5.86;100.00
22440;BME280;11387;51.612;7.210;2024-02-26T10:08:11;161809.19;;;6.02;100.00
22440;BME280;11387;51.612;7.210;2024-02-26T10:10:37;161837.13;;;6.13;100.00
22440;BME280;11387;51.612;7.210;2024-02-26T10:13:03;161846.47;;;6.16;100.00
22440;BME280;11387;51.612;7.210;2024-02-26T10:15:31;161870.47;;;6.25;100.00
22440;BME280;11387;51.612;7.210;2024-02-26T10:17:55;161913.16;;;6.41;100.00
22440;BME280;11387;51.612;7.210;2024-02-26T10:20:19;161921.13;;;6.45;100.00
22440;BME280;11387;51.612;7.210;2024-02-26T10:22:44;161931.78;;;6.49;100.00
22440;BME280;11387;51.612;7.210;2024-02-26T10:25:08;161966.47;;;6.62;100.00
22440;BME280;11387;51.612;7.210;2024-02-26T10:27:33;161983.81;;;6.68;100.00
22440;BME280;11387;51.612;7.210;2024-02-26T10:30:00;161993.16;;;6.72;100.00
22440;BME280;11387;51.612;7.210;2024-02-26T10:32:25;161982.47;;;6.68;100.00
22440;BME280;11387;51.612;7.210;2024-02-26T10:34:55;161974.47;;;6.65;100.00
22440;BME280;11387;51.612;7.210;2024-02-26T10:37:19;161987.81;;;6.70;100.00
22440;BME280;11387;51.612;7.210;2024-02-26T10:39:46;161993.16;;;6.72;100.00
22440;BME280;11387;51.612;7.210;2024-02-26T10:42:12;162011.78;;;6.79;100.00
22440;BME280;11387;51.612;7.210;2024-02-26T10:44:39;161997.09;;;6.73;100.00
22440;BME280;11387;51.612;7.210;2024-02-26T10:47:10;162022.44;;;6.83;100.00
22440;BME280;11387;51.612;7.210;2024-02-26T10:49:35;162065.16;;;6.99;100.00
22440;BME280;11387;51.612;7.210;2024-02-26T10:51:59;162097.13;;;7.12;100.00
22440;BME280;11387;51.612;7.210;2024-02-26T10:54:25;162075.78;;;7.03;100.00
22440;BME280;11387;51.612;7.210;2024-02-26T10:56:51;162086.47;;;7.07;100.00
22440;BME280;11387;51.612;7.210;2024-02-26T10:59:15;162054.47;;;6.95;100.00
22440;BME280;11387;51.612;7.210;2024-02-26T11:01:44;162005.09;;;6.76;100.00
22440;BME280;11387;51.612;7.210;2024-02-26T11:04:10;161963.81;;;6.61;100.00
22440;BME280;11387;51.612;7.210;2024-02-26T11:06:34;161974.47;;;6.65;100.00
22440;BME280;11387;51.612;7.210;2024-02-26T11:08:59;161981.16;;;6.67;100.00
22440;BME280;11387;51.612;7.210;2024-02-26T11:11:25;161970.47;;;6.63;100.00
22440;BME280;11387;51.612;7.210;2024-02-26T11:13:50;161947.78;;;6.55;100.00
22440;BME280;11387;51.612;7.210;2024-02-26T11:16:15;161942.44;;;6.53;100.00
22440;BME280;11387;51.612;7.210;2024-02-26T11:18:41;161957.13;;;6.58;100.00
22440;BME280;11387;51.612;7.210;2024-02-26T11:21:06;161961.13;;;6.60;100.00
22440;BME280;11387;51.612;7.210;2024-02-26T11:23:31;161974.47;;;6.65;100.00
22440;BME280;11387;51.612;7.210;2024-02-26T11:25:57;161969.13;;;6.63;100.00
22440;BME280;11387;51.612;7.210;2024-02-26T11:28:24;161953.13;;;6.57;100.00
22440;BME280;11387;51.612;7.210;2024-02-26T11:30:51;161945.13;;;6.54;100.00
22440;BME280;11387;51.612;7.210;2024-02-26T11:33:15;161979.81;;;6.67;100.00
22440;BME280;11387;51.612;7.210;2024-02-26T11:35:41;161991.81;;;6.71;100.00
22440;BME280;11387;51.612;7.210;2024-02-26T11:38:08;161977.13;;;6.66;100.00
22440;BME280;11387;51.612;7.210;2024-02-26T11:40:32;161985.16;;;6.69;100.00
22440;BME280;11387;51.612;7.210;2024-02-26T11:42:56;162054.47;;;6.95;100.00
22440;BME280;11387;51.612;7.210;2024-02-26T11:45:47;162070.50;;;7.01;100.00
22440;BME280;11387;51.612;7.210;2024-02-26T11:48:12;162109.16;;;7.16;100.00
22440;BME280;11387;51.612;7.210;2024-02-26T11:50:38;162142.50;;;7.29;100.00
22440;BME280;11387;51.612;7.210;2024-02-26T11:53:23;162094.47;;;7.10;100.00
22440;BME280;11387;51.612;7.210;2024-02-26T11:55:48;162095.78;;;7.11;100.00
22440;BME280;11387;51.612;7.210;2024-02-26T11:58:12;162087.78;;;7.08;100.00
22440;BME280;11387;51.612;7.210;2024-02-26T12:00:35;162134.50;;;7.26;100.00
22440;BME280;11387;51.612;7.210;2024-02-26T12:03:00;162150.53;;;7.32;100.00
22440;BME280;11387;51.612;7.210;2024-02-26T12:05:31;162222.56;;;7.59;100.00
22440;BME280;11387;51.612;7.210;2024-02-26T12:07:59;162227.91;;;7.61;100.00
22440;BME280;11387;51.612;7.210;2024-02-26T12:10:30;162262.56;;;7.74;100.00
22440;BME280;11387;51.612;7.210;2024-02-26T12:13:03;162253.22;;;7.71;100.00
22440;BME280;11387;51.612;7.210;2024-02-26T12:15:31;162251.88;;;7.70;100.00
22440;BME280;11387;51.612;7.210;2024-02-26T12:17:56;162262.56;;;7.74;100.00
22440;BME280;11387;51.612;7.210;2024-02-26T12:20:20;162307.97;;;7.92;100.00
22440;BME280;11387;51.612;7.210;2024-02-26T12:22:45;162330.59;;;8.00;100.00
22440;BME280;11387;51.612;7.210;2024-02-26T12:25:09;162285.25;;;7.83;100.00
22440;BME280;11387;51.612;7.210;2024-02-26T12:27:34;162254.53;;;7.71;100.00
22440;BME280;11387;51.612;7.210;2024-02-26T12:29:57;162182.50;;;7.44;100.00
22440;BME280;11387;51.612;7.210;2024-02-26T12:32:21;162078.44;;;7.04;100.00
22440;BME280;11387;51.612;7.210;2024-02-26T12:34:45;162063.81;;;6.99;100.00
22440;BME280;11387;51.612;7.210;2024-02-26T12:37:10;162059.81;;;6.97;100.00
22440;BME280;11387;51.612;7.210;2024-02-26T12:39:33;162035.81;;;6.88;100.00